Pagrindinis puslapis
METAR-TAF:

METAR-TAF

Oro uostai :

Konakris, Gvinėja

platuma: 09-34N, ilguma: 013-37W, Aukštis: 26 m

Dabartinis oras

Ataskaita buvo paskelbta 1 valandą ir 23 minutes, ne 23:00 UTC
Vėjas 6 kt iš Vakarų
Temperatūra 26°C
Drėgmė 84%
Slėgis 1013 hPa
Matomumas 10 km arba daugiau
Mažai debesys ne aukštis 1500 ft

METAR: GUCY 242300Z 28006KT 9999 FEW015 26/23 Q1013 NOSIG

Laikas: 00:23 (00:23 UTC)

Prognozė

Ataskaita buvo paskelbta 1 valandą ir 23 minutes, ne 23:00 UTC
Prognozė galioja nuo 25 metu 00 UTC su 26 metu 06 UTC
Vėjas 6 kt iš Vakarų
Matomumas 10 km arba daugiau
Mažai debesys ne aukštis 1500 ft
Išsisklaidę debesys ne aukštis 11000 ft
Laikinai
nuo 25 metu 03 UTC su 25 metu 09 UTC
Išsisklaidę debesys ne aukštis 1500 ft
Laikinai
nuo 25 metu 12 UTC su 25 metu 18 UTC
Matomumas 10 km arba daugiau
nėra debesų žemiau 1500 m ir nėra kamuolinių lietaus debesų

TAF: GUCY 242300Z 2500/2606 26006KT 9999 FEW015 SCT110 TEMPO 2503/2509 SCT015 TEMPO 2512/2518 CAVOK

Orai ataskaitas ir orų prognozės (METAR, TAF).

turimą stotys yra geltonos ir raudonos taškus žemėlapyje.

Perkelti pele per norėdami pamatyti stoties vardą.

Tada spustelėkite, norėdami matyti oro stebėjimo ir prognozės.

Norėdami pakeisti žemėlapį: spustelėkite ant žalios mygtukų su juodo kryžiaus žemyn,; žalią mygtuką su brūkšneliu, jei norite nutolinti; arba žalių rodyklių gretimoms žemėlapius.


METAR-TAF: